createdAt,value
2018-12-31T00:01:23.793Z,14.33
2018-12-31T00:03:53.241Z,17.47
2018-12-31T00:06:23.201Z,14.53
2018-12-31T00:08:52.607Z,13.53
2018-12-31T00:11:22.002Z,14.73
2018-12-31T00:13:51.567Z,18.30
2018-12-31T00:16:20.991Z,14.80
2018-12-31T00:18:50.329Z,15.63
2018-12-31T00:21:19.808Z,16.37
2018-12-31T00:23:49.278Z,14.63
2018-12-31T00:26:18.650Z,13.10
2018-12-31T00:28:48.012Z,12.80
2018-12-31T00:31:17.359Z,11.87
2018-12-31T00:33:47.142Z,18.23
2018-12-31T00:36:16.564Z,17.23
2018-12-31T00:38:46.819Z,16.70
2018-12-31T00:41:16.260Z,16.43
2018-12-31T00:43:45.772Z,21.37
2018-12-31T00:46:15.255Z,20.93
2018-12-31T00:48:44.627Z,21.97
2018-12-31T00:51:13.993Z,17.37
2018-12-31T00:53:43.358Z,12.97
2018-12-31T00:56:12.742Z,12.00
2018-12-31T00:58:42.440Z,11.97
2018-12-31T01:01:11.775Z,13.87
2018-12-31T01:03:41.123Z,17.80
2018-12-31T01:06:10.563Z,19.40
2018-12-31T01:08:40.195Z,12.87
2018-12-31T01:11:09.525Z,12.13
2018-12-31T01:13:41.730Z,11.80
2018-12-31T01:16:11.077Z,8.43
2018-12-31T01:18:40.675Z,10.07
2018-12-31T01:21:10.279Z,11.03
2018-12-31T01:23:39.651Z,10.90
2018-12-31T01:26:09.005Z,13.30
2018-12-31T01:28:38.470Z,10.30
2018-12-31T01:31:07.818Z,13.70
2018-12-31T01:33:38.441Z,12.53
2018-12-31T01:36:07.764Z,9.87
2018-12-31T01:38:37.130Z,10.13
2018-12-31T01:41:06.884Z,13.17
2018-12-31T01:43:36.207Z,9.13
2018-12-31T01:46:05.555Z,10.80
2018-12-31T01:48:35.047Z,8.60
2018-12-31T01:51:11.071Z,10.53
2018-12-31T01:53:35.550Z,9.60
2018-12-31T01:56:05.113Z,6.80
2018-12-31T01:58:34.434Z,8.60
2018-12-31T02:01:03.806Z,11.40
2018-12-31T02:03:33.255Z,8.57
2018-12-31T02:06:02.639Z,10.07
2018-12-31T02:08:32.392Z,10.03
2018-12-31T02:11:01.865Z,12.87
2018-12-31T02:13:31.191Z,9.60
2018-12-31T02:16:00.818Z,12.17
2018-12-31T02:18:30.170Z,8.63
2018-12-31T02:20:59.482Z,7.13
2018-12-31T02:23:28.798Z,9.70
2018-12-31T02:25:58.186Z,10.47
2018-12-31T02:28:27.691Z,6.77
2018-12-31T02:30:58.353Z,9.00
2018-12-31T02:33:27.688Z,8.57
2018-12-31T02:35:57.066Z,7.50
2018-12-31T02:38:26.407Z,8.17
2018-12-31T02:40:55.727Z,8.90
2018-12-31T02:43:25.574Z,8.97
2018-12-31T02:45:55.033Z,10.40
2018-12-31T02:48:24.373Z,9.17
2018-12-31T02:50:54.048Z,8.70
2018-12-31T02:53:23.408Z,8.03
2018-12-31T02:55:52.860Z,8.33
2018-12-31T02:58:22.224Z,7.80
2018-12-31T03:00:51.879Z,6.47
2018-12-31T03:03:21.238Z,7.37
2018-12-31T03:05:50.558Z,6.93
2018-12-31T03:08:19.915Z,7.73
2018-12-31T03:10:49.233Z,6.27
2018-12-31T03:13:18.910Z,6.57
2018-12-31T03:15:48.244Z,6.07
2018-12-31T03:18:17.623Z,5.40
2018-12-31T03:20:46.949Z,8.23
2018-12-31T03:23:16.287Z,6.10
2018-12-31T03:25:45.602Z,8.53
2018-12-31T03:28:15.049Z,6.23
2018-12-31T03:30:44.670Z,6.27
2018-12-31T03:33:14.018Z,7.03
2018-12-31T03:35:43.349Z,7.80
2018-12-31T03:38:12.728Z,7.90
2018-12-31T03:40:42.368Z,6.63
2018-12-31T03:43:11.723Z,5.93
2018-12-31T03:45:41.034Z,6.77
2018-12-31T03:48:10.346Z,5.33
2018-12-31T03:50:39.675Z,6.47
2018-12-31T03:53:08.984Z,7.37
2018-12-31T03:55:38.589Z,4.67
2018-12-31T03:58:07.982Z,5.97
2018-12-31T04:00:37.397Z,5.43
2018-12-31T04:03:06.814Z,5.43
2018-12-31T04:05:36.669Z,5.80
2018-12-31T04:08:06.030Z,7.53
2018-12-31T04:10:35.330Z,8.73
2018-12-31T04:13:04.984Z,6.53
2018-12-31T04:15:34.381Z,6.40
2018-12-31T04:18:03.783Z,5.73
2018-12-31T04:20:33.027Z,6.13
2018-12-31T04:23:02.426Z,5.93
2018-12-31T04:25:31.880Z,5.80
2018-12-31T04:28:01.501Z,5.70
2018-12-31T04:30:30.825Z,6.23
2018-12-31T04:33:00.148Z,5.97
2018-12-31T04:35:29.463Z,6.63
2018-12-31T04:37:58.841Z,5.00
2018-12-31T04:40:28.530Z,6.57
2018-12-31T04:42:57.888Z,6.47
2018-12-31T04:45:27.214Z,5.33
2018-12-31T04:47:56.562Z,4.97
2018-12-31T04:50:25.888Z,7.40
2018-12-31T04:52:56.620Z,4.87
2018-12-31T04:55:26.185Z,4.70
2018-12-31T04:57:55.573Z,5.47
2018-12-31T05:00:24.947Z,4.90
2018-12-31T05:02:54.636Z,5.13
2018-12-31T05:05:23.979Z,5.17
2018-12-31T05:07:53.371Z,7.20
2018-12-31T05:10:22.980Z,7.23
2018-12-31T05:12:52.393Z,7.83
2018-12-31T05:15:21.739Z,7.17
2018-12-31T05:17:51.081Z,5.90
2018-12-31T05:20:20.513Z,5.27
2018-12-31T05:22:49.848Z,6.10
2018-12-31T05:25:19.257Z,7.27
2018-12-31T05:27:48.667Z,7.13
2018-12-31T05:30:17.966Z,8.03
2018-12-31T05:32:47.291Z,5.37
2018-12-31T05:35:16.630Z,5.63
2018-12-31T05:37:46.083Z,6.13
2018-12-31T05:40:15.673Z,4.90
2018-12-31T05:42:45.046Z,4.60
2018-12-31T05:45:14.378Z,5.10
2018-12-31T05:47:43.700Z,6.37
2018-12-31T05:50:13.047Z,4.47
2018-12-31T05:52:42.624Z,4.97
2018-12-31T05:55:12.050Z,4.97
2018-12-31T05:57:41.339Z,4.23
2018-12-31T06:00:10.769Z,4.83
2018-12-31T06:02:40.082Z,4.33
2018-12-31T06:05:09.783Z,3.73
2018-12-31T06:07:39.159Z,4.00
2018-12-31T06:10:08.502Z,5.40
2018-12-31T06:12:37.819Z,4.70
2018-12-31T06:15:07.296Z,3.83
2018-12-31T06:17:36.894Z,7.13
2018-12-31T06:20:06.335Z,4.00
2018-12-31T06:22:35.790Z,4.33
2018-12-31T06:25:05.287Z,6.43
2018-12-31T06:27:34.689Z,5.87
2018-12-31T06:30:04.459Z,3.83
2018-12-31T06:32:33.811Z,4.53
2018-12-31T06:35:03.366Z,7.10
2018-12-31T06:37:32.712Z,5.63
2018-12-31T06:40:02.053Z,3.53
2018-12-31T06:42:31.539Z,3.87
2018-12-31T06:45:00.838Z,4.73
2018-12-31T06:47:30.380Z,4.17
2018-12-31T06:49:59.835Z,4.90
2018-12-31T06:52:29.302Z,3.90
2018-12-31T06:54:58.727Z,3.70
2018-12-31T06:57:28.071Z,4.43
2018-12-31T06:59:57.626Z,5.53
2018-12-31T07:02:27.003Z,5.17
2018-12-31T07:04:56.426Z,5.13
2018-12-31T07:07:25.794Z,4.43
2018-12-31T07:09:55.710Z,5.97
2018-12-31T07:12:24.970Z,4.20
2018-12-31T07:14:54.386Z,4.43
2018-12-31T07:17:23.694Z,4.77
2018-12-31T07:19:53.170Z,3.90
2018-12-31T07:22:22.642Z,5.53
2018-12-31T07:24:51.978Z,3.67
2018-12-31T07:27:21.349Z,4.47
2018-12-31T07:29:50.711Z,4.13
2018-12-31T07:32:20.157Z,4.10
2018-12-31T07:34:49.664Z,5.87
2018-12-31T07:37:19.014Z,5.10
2018-12-31T07:39:48.378Z,6.50
2018-12-31T07:42:17.918Z,5.73
2018-12-31T07:44:47.425Z,4.97
2018-12-31T07:47:16.820Z,4.40
2018-12-31T07:49:46.291Z,4.80
2018-12-31T07:52:15.782Z,6.00
2018-12-31T07:54:45.542Z,3.67
2018-12-31T07:57:14.966Z,4.47
2018-12-31T07:59:44.318Z,3.53
2018-12-31T08:02:14.099Z,4.40
2018-12-31T08:04:43.450Z,4.37
2018-12-31T08:07:12.801Z,12.43
2018-12-31T08:09:42.295Z,7.63
2018-12-31T08:12:11.899Z,8.03
2018-12-31T08:14:41.345Z,6.63
2018-12-31T08:17:10.686Z,4.87
2018-12-31T08:19:40.026Z,6.77
2018-12-31T08:22:10.250Z,10.83
2018-12-31T08:24:39.722Z,9.10
2018-12-31T08:27:09.195Z,9.23
2018-12-31T08:29:38.556Z,10.40
2018-12-31T08:32:08.074Z,10.90
2018-12-31T08:34:37.451Z,10.67
2018-12-31T08:37:07.015Z,10.23
2018-12-31T08:39:36.448Z,13.63
2018-12-31T08:42:05.839Z,13.40
2018-12-31T08:44:35.196Z,11.00
2018-12-31T08:47:04.838Z,10.73
2018-12-31T08:49:34.196Z,8.87
2018-12-31T08:52:03.542Z,11.80
2018-12-31T08:54:33.058Z,11.20
2018-12-31T08:57:02.787Z,10.53
2018-12-31T08:59:32.139Z,14.73
2018-12-31T09:02:01.702Z,14.50
2018-12-31T09:04:31.547Z,11.63
2018-12-31T09:07:00.946Z,11.37
2018-12-31T09:09:30.299Z,13.47
2018-12-31T09:12:00.207Z,19.80
2018-12-31T09:14:29.615Z,21.47
2018-12-31T09:16:59.408Z,29.47
2018-12-31T09:19:28.957Z,16.30
2018-12-31T09:21:58.450Z,16.97
2018-12-31T09:24:27.911Z,11.63
2018-12-31T09:26:57.390Z,12.80
2018-12-31T09:29:26.789Z,12.73
2018-12-31T09:31:56.349Z,11.57
2018-12-31T09:34:26.083Z,12.63
2018-12-31T09:36:55.628Z,13.87
2018-12-31T09:39:25.286Z,14.40
2018-12-31T09:41:54.666Z,13.67
2018-12-31T09:44:24.113Z,11.60
2018-12-31T09:46:53.548Z,10.80
2018-12-31T09:49:23.362Z,9.47
2018-12-31T09:51:52.704Z,9.10
2018-12-31T09:54:22.230Z,7.97
2018-12-31T09:56:51.592Z,7.17
2018-12-31T09:59:21.054Z,9.00
2018-12-31T10:01:50.530Z,9.03
2018-12-31T10:04:21.537Z,7.37
2018-12-31T10:06:51.170Z,6.27
2018-12-31T10:09:20.815Z,5.83
2018-12-31T10:11:50.190Z,6.00
2018-12-31T10:14:19.655Z,6.13
2018-12-31T10:16:49.142Z,4.93
2018-12-31T10:19:18.758Z,7.60
2018-12-31T10:21:48.122Z,5.33
2018-12-31T10:24:17.647Z,4.87
2018-12-31T10:26:47.006Z,3.70
2018-12-31T10:29:16.569Z,4.27
2018-12-31T10:31:45.929Z,5.27
2018-12-31T10:34:15.378Z,5.77
2018-12-31T10:36:44.704Z,7.97
2018-12-31T10:39:14.255Z,5.50
2018-12-31T10:41:43.871Z,6.63
2018-12-31T10:44:13.204Z,5.27
2018-12-31T10:46:42.625Z,6.77
2018-12-31T10:49:11.963Z,5.37
2018-12-31T10:51:41.570Z,5.67
2018-12-31T10:54:10.984Z,11.77
2018-12-31T10:56:40.409Z,13.00
2018-12-31T10:59:09.813Z,8.03
2018-12-31T11:01:39.411Z,7.37
2018-12-31T11:04:08.813Z,5.17
2018-12-31T11:06:38.315Z,5.57
2018-12-31T11:09:08.202Z,5.00
2018-12-31T11:11:37.864Z,5.17
2018-12-31T11:14:07.640Z,6.10
2018-12-31T11:16:37.180Z,5.80
2018-12-31T11:19:06.794Z,5.70
2018-12-31T11:21:36.287Z,6.60
2018-12-31T11:24:05.631Z,8.17
2018-12-31T11:26:35.174Z,6.73
2018-12-31T11:29:04.687Z,9.83
2018-12-31T11:31:34.105Z,6.20
2018-12-31T11:34:03.721Z,11.03
2018-12-31T11:36:33.077Z,8.27
2018-12-31T11:39:02.767Z,7.00
2018-12-31T11:41:32.201Z,7.03
2018-12-31T11:44:01.574Z,5.10
2018-12-31T11:46:30.914Z,3.90
2018-12-31T11:49:00.370Z,4.10
2018-12-31T11:51:29.792Z,6.00
2018-12-31T11:53:59.210Z,8.50
2018-12-31T11:56:28.744Z,6.57
2018-12-31T11:58:58.483Z,4.90
2018-12-31T12:01:27.952Z,7.17
2018-12-31T12:03:57.632Z,6.43
2018-12-31T12:06:27.385Z,7.03
2018-12-31T12:08:57.175Z,5.97
2018-12-31T12:11:26.645Z,4.37
2018-12-31T12:13:56.139Z,5.20
2018-12-31T12:16:25.593Z,6.10
2018-12-31T12:18:55.872Z,4.17
2018-12-31T12:21:25.656Z,2.97
2018-12-31T12:23:55.101Z,5.43
2018-12-31T12:26:24.672Z,6.27
2018-12-31T12:28:54.066Z,2.77
2018-12-31T12:31:23.515Z,5.50
2018-12-31T12:33:52.958Z,2.43
2018-12-31T12:36:22.595Z,1.57
2018-12-31T12:38:52.058Z,20.03
2018-12-31T12:41:21.682Z,2.17
2018-12-31T12:43:51.254Z,1.20
2018-12-31T12:46:20.641Z,1.80
2018-12-31T12:48:50.214Z,1.50
2018-12-31T12:51:19.726Z,1.13
2018-12-31T12:53:49.208Z,1.03
2018-12-31T12:56:18.636Z,1.53
2018-12-31T12:58:48.419Z,0.90
2018-12-31T13:01:18.134Z,0.80
2018-12-31T13:03:47.532Z,0.83
2018-12-31T13:06:17.157Z,0.90
2018-12-31T13:08:46.982Z,1.10
2018-12-31T13:11:16.575Z,1.47
2018-12-31T13:13:46.121Z,1.03
2018-12-31T13:16:15.917Z,2.03
2018-12-31T13:18:45.586Z,3.47
2018-12-31T13:21:15.032Z,11.50
2018-12-31T13:23:44.693Z,8.07
2018-12-31T13:26:14.112Z,7.57
2018-12-31T13:28:43.711Z,16.27
2018-12-31T13:31:13.494Z,7.63
2018-12-31T13:33:43.210Z,3.33
2018-12-31T13:36:12.878Z,4.13
2018-12-31T13:38:42.468Z,4.70
2018-12-31T13:41:12.265Z,3.80
2018-12-31T13:43:41.808Z,2.90
2018-12-31T13:46:11.440Z,2.70
2018-12-31T13:48:40.886Z,2.07
2018-12-31T13:51:10.432Z,1.67
2018-12-31T13:53:40.222Z,1.50
2018-12-31T13:56:10.039Z,1.63
2018-12-31T13:58:39.547Z,4.30
2018-12-31T14:01:09.004Z,4.87
2018-12-31T14:03:38.478Z,3.33
2018-12-31T14:06:08.067Z,3.30
2018-12-31T14:08:37.783Z,6.67
2018-12-31T14:11:07.756Z,7.40
2018-12-31T14:13:37.645Z,5.60
2018-12-31T14:16:07.153Z,7.53
2018-12-31T14:18:36.947Z,4.83
2018-12-31T14:21:06.699Z,3.00
2018-12-31T14:23:36.327Z,3.53
2018-12-31T14:26:06.049Z,7.33
2018-12-31T14:28:35.606Z,11.63
2018-12-31T14:31:05.664Z,15.40
2018-12-31T14:33:35.502Z,13.57
2018-12-31T14:36:05.406Z,13.97
2018-12-31T14:38:35.258Z,14.47
2018-12-31T14:41:04.786Z,14.47
2018-12-31T14:43:34.650Z,16.27
2018-12-31T14:46:04.052Z,20.27
2018-12-31T14:48:33.752Z,11.93
2018-12-31T14:51:03.290Z,8.77
2018-12-31T14:53:32.789Z,11.23
2018-12-31T14:56:02.564Z,10.80
2018-12-31T14:58:31.975Z,10.03
2018-12-31T15:01:01.535Z,14.30
2018-12-31T15:03:31.005Z,13.43
2018-12-31T15:06:00.778Z,12.90
2018-12-31T15:08:30.479Z,16.47
2018-12-31T15:11:00.255Z,17.27
2018-12-31T15:13:30.175Z,7.97
2018-12-31T15:15:59.692Z,7.40
2018-12-31T15:18:29.458Z,8.67
2018-12-31T15:20:58.980Z,6.63
2018-12-31T15:23:28.551Z,5.33
2018-12-31T15:25:58.763Z,3.43
2018-12-31T15:28:28.353Z,2.53
2018-12-31T15:30:58.043Z,4.10
2018-12-31T15:33:27.887Z,1.83
2018-12-31T15:35:57.370Z,3.17
2018-12-31T15:38:26.930Z,2.10
2018-12-31T15:40:56.391Z,2.57
2018-12-31T15:43:26.051Z,2.80
2018-12-31T15:45:55.831Z,3.83
2018-12-31T15:48:25.531Z,1.70
2018-12-31T15:50:55.267Z,1.90
2018-12-31T15:53:24.875Z,3.03
2018-12-31T15:55:54.821Z,6.10
2018-12-31T15:58:24.425Z,3.40
2018-12-31T16:00:54.219Z,1.87
2018-12-31T16:03:23.847Z,1.90
2018-12-31T16:05:53.415Z,1.90
2018-12-31T16:08:23.080Z,1.93
2018-12-31T16:10:52.751Z,1.50
2018-12-31T16:13:22.174Z,1.47
2018-12-31T16:15:51.641Z,1.57
2018-12-31T16:18:21.546Z,1.80
2018-12-31T16:20:51.099Z,3.17
2018-12-31T16:23:20.587Z,2.40
2018-12-31T16:25:50.325Z,5.53
2018-12-31T16:28:19.785Z,5.70
2018-12-31T16:30:49.905Z,3.90
2018-12-31T16:33:19.603Z,5.30
2018-12-31T16:35:49.408Z,8.53
2018-12-31T16:38:19.189Z,6.67
2018-12-31T16:40:48.577Z,6.40
2018-12-31T16:43:18.506Z,7.93
2018-12-31T16:45:48.007Z,5.50
2018-12-31T16:48:17.421Z,5.27
2018-12-31T16:50:47.100Z,3.77
2018-12-31T16:53:16.566Z,3.57
2018-12-31T16:55:46.182Z,3.10
2018-12-31T16:58:16.290Z,3.80
2018-12-31T17:00:46.302Z,4.20
2018-12-31T17:03:15.780Z,2.73
2018-12-31T17:05:45.554Z,2.90
2018-12-31T17:08:15.022Z,2.20
2018-12-31T17:10:44.457Z,2.47
2018-12-31T17:13:14.182Z,2.47
2018-12-31T17:15:43.668Z,5.43
2018-12-31T17:18:13.086Z,3.57
2018-12-31T17:20:42.744Z,2.47
2018-12-31T17:23:12.391Z,1.93
2018-12-31T17:25:41.758Z,2.43
2018-12-31T17:28:11.513Z,1.97
2018-12-31T17:30:40.928Z,3.67
2018-12-31T17:33:10.587Z,1.63
2018-12-31T17:35:40.079Z,1.70
2018-12-31T17:38:09.575Z,1.50
2018-12-31T17:40:38.958Z,1.67
2018-12-31T17:43:08.674Z,2.07
2018-12-31T17:45:38.155Z,3.00
2018-12-31T17:48:07.647Z,3.03
2018-12-31T17:50:36.978Z,1.97
2018-12-31T17:53:06.705Z,1.70
2018-12-31T17:55:36.068Z,4.00
2018-12-31T17:58:05.583Z,1.67
2018-12-31T18:00:35.103Z,1.97
2018-12-31T18:03:04.715Z,2.77
2018-12-31T18:05:34.055Z,3.00
2018-12-31T18:08:03.992Z,1.93
2018-12-31T18:10:33.397Z,2.00
2018-12-31T18:13:02.784Z,2.93
2018-12-31T18:15:32.566Z,2.50
2018-12-31T18:18:04.795Z,2.00
2018-12-31T18:20:34.481Z,2.63
2018-12-31T18:23:04.093Z,1.83
2018-12-31T18:25:33.643Z,3.50
2018-12-31T18:28:06.026Z,1.97
2018-12-31T18:30:35.742Z,2.13
2018-12-31T18:33:05.194Z,2.67
2018-12-31T18:35:34.579Z,1.80
2018-12-31T18:38:03.975Z,1.67
2018-12-31T18:40:33.545Z,1.70
2018-12-31T18:43:03.104Z,5.90
2018-12-31T18:45:32.493Z,1.90
2018-12-31T18:48:02.087Z,1.90
2018-12-31T18:50:31.394Z,2.53
2018-12-31T18:53:00.716Z,1.97
2018-12-31T18:55:30.141Z,3.43
2018-12-31T18:57:59.503Z,2.90
2018-12-31T19:00:28.984Z,2.17
2018-12-31T19:02:58.438Z,2.13
2018-12-31T19:05:27.917Z,2.27
2018-12-31T19:07:58.222Z,2.57
2018-12-31T19:10:27.605Z,2.07
2018-12-31T19:12:57.266Z,2.37
2018-12-31T19:15:26.646Z,2.50
2018-12-31T19:17:56.059Z,2.30
2018-12-31T19:20:25.887Z,3.33
2018-12-31T19:22:55.376Z,1.80
2018-12-31T19:25:24.685Z,1.90
2018-12-31T19:27:54.191Z,3.17
2018-12-31T19:30:23.949Z,2.30
2018-12-31T19:32:53.842Z,2.13
2018-12-31T19:35:23.465Z,1.90
2018-12-31T19:37:52.855Z,1.80
2018-12-31T19:40:22.211Z,3.57
2018-12-31T19:42:51.847Z,2.17
2018-12-31T19:45:21.493Z,2.17
2018-12-31T19:47:51.113Z,2.93
2018-12-31T19:50:20.914Z,5.60
2018-12-31T19:52:50.351Z,3.03
2018-12-31T19:55:19.724Z,3.10
2018-12-31T19:57:49.708Z,3.10
2018-12-31T20:00:19.349Z,3.00
2018-12-31T20:02:48.727Z,2.87
2018-12-31T20:05:18.233Z,3.90
2018-12-31T20:07:47.916Z,2.50
2018-12-31T20:10:17.758Z,3.53
2018-12-31T20:12:47.347Z,3.03
2018-12-31T20:15:16.616Z,2.20
2018-12-31T20:17:46.081Z,2.33
2018-12-31T20:20:15.546Z,2.60
2018-12-31T20:22:45.178Z,3.40
2018-12-31T20:25:14.611Z,3.73
2018-12-31T20:27:44.060Z,3.80
2018-12-31T20:30:13.709Z,2.40
2018-12-31T20:32:43.034Z,2.73
2018-12-31T20:35:12.463Z,3.47
2018-12-31T20:37:41.883Z,2.40
2018-12-31T20:40:11.568Z,3.07
2018-12-31T20:42:40.950Z,2.40
2018-12-31T20:45:10.361Z,4.93
2018-12-31T20:47:39.677Z,5.87
2018-12-31T20:50:09.166Z,7.20
2018-12-31T20:52:38.921Z,5.80
2018-12-31T20:55:08.261Z,11.20
2018-12-31T20:57:37.646Z,11.03
2018-12-31T21:00:07.881Z,12.33
2018-12-31T21:02:37.721Z,9.87
2018-12-31T21:05:07.907Z,13.60
2018-12-31T21:07:37.287Z,12.27
2018-12-31T21:10:09.196Z,18.00
2018-12-31T21:12:40.232Z,15.17
2018-12-31T21:15:09.153Z,18.43
2018-12-31T21:17:38.849Z,21.87
2018-12-31T21:20:08.955Z,11.27
2018-12-31T21:22:38.389Z,10.23
2018-12-31T21:25:07.885Z,13.97
2018-12-31T21:27:37.539Z,14.63
2018-12-31T21:30:09.296Z,21.97
2018-12-31T21:32:38.674Z,16.73
2018-12-31T21:35:08.658Z,30.17
2018-12-31T21:37:38.159Z,13.10
2018-12-31T21:40:09.806Z,15.53
2018-12-31T21:42:39.223Z,12.67
2018-12-31T21:45:09.051Z,11.63
2018-12-31T21:47:38.510Z,14.13
2018-12-31T21:50:08.018Z,11.50
2018-12-31T21:52:37.611Z,20.93
2018-12-31T21:55:07.265Z,21.67
2018-12-31T21:57:37.015Z,20.10
2018-12-31T22:00:07.975Z,18.80
2018-12-31T22:02:37.874Z,16.40
2018-12-31T22:05:07.284Z,35.03
2018-12-31T22:07:37.029Z,17.73
2018-12-31T22:10:06.761Z,16.53
2018-12-31T22:12:36.411Z,41.13
2018-12-31T22:15:08.116Z,44.23
2018-12-31T22:17:37.849Z,33.10
2018-12-31T22:20:09.013Z,25.10
2018-12-31T22:22:38.466Z,25.77
2018-12-31T22:25:08.217Z,23.70
2018-12-31T22:27:37.956Z,28.10
2018-12-31T22:30:09.007Z,31.07
2018-12-31T22:32:38.636Z,19.63
2018-12-31T22:35:08.226Z,23.20
2018-12-31T22:37:37.583Z,29.47
2018-12-31T22:40:07.109Z,23.97
2018-12-31T22:42:36.977Z,22.30
2018-12-31T22:45:06.435Z,31.87
2018-12-31T22:47:35.895Z,27.10
2018-12-31T22:50:06.410Z,22.53
2018-12-31T22:52:35.860Z,21.60
2018-12-31T22:55:05.339Z,19.53
2018-12-31T22:57:34.708Z,35.93
2018-12-31T23:00:04.769Z,23.67
2018-12-31T23:02:34.482Z,23.57
2018-12-31T23:05:03.831Z,18.47
2018-12-31T23:07:33.230Z,26.87
2018-12-31T23:10:02.623Z,29.20
2018-12-31T23:12:32.190Z,22.00
2018-12-31T23:15:01.556Z,25.83
2018-12-31T23:17:30.947Z,22.50
2018-12-31T23:20:00.250Z,21.90
2018-12-31T23:22:29.563Z,26.37
2018-12-31T23:24:58.884Z,50.27
2018-12-31T23:27:28.743Z,39.13
2018-12-31T23:29:58.098Z,25.60
2018-12-31T23:32:27.471Z,24.17
2018-12-31T23:34:56.827Z,21.03
2018-12-31T23:37:29.720Z,25.33
2018-12-31T23:39:59.503Z,21.77
2018-12-31T23:42:28.940Z,20.00
2018-12-31T23:44:58.429Z,98.40
2018-12-31T23:47:27.842Z,176.97
2018-12-31T23:49:57.483Z,103.17
2018-12-31T23:52:27.778Z,118.13
2018-12-31T23:54:57.143Z,89.30
2018-12-31T23:57:27.000Z,130.10
2018-12-31T23:59:56.550Z,116.77
